Time;durP1;ratioP1;P1;durP2;ratioP2;P2;SDS_P1;SDS_P2;PMS_P1;PMS_P2;Temp;Humidity;BMP_temperature;BMP_pressure;BME280_temperature;BME280_humidity;BME280_pressure;Samples;Min_cycle;Max_cycle;Signal;HPM_P1;HPM_P2
2021/12/13 00:01:21;;;;;;;24.57;15.10;;;;;;;;;;4983669;28;20453;-78
2021/12/13 00:03:50;;;;;;;23.10;14.63;;;;;;;;;;4982379;28;20451;-79
2021/12/13 00:06:25;;;;;;;26.97;15.23;;;;;;;;;;4981287;28;20453;-79
2021/12/13 00:08:54;;;;;;;25.27;15.53;;;;;;;;;;4985408;28;20894;-80
2021/12/13 00:11:23;;;;;;;24.90;15.70;;;;;;;;;;4980655;28;20476;-79
2021/12/13 00:13:51;;;;;;;26.90;16.23;;;;;;;;;;4980795;28;20447;-79
2021/12/13 00:16:28;;;;;;;27.07;16.60;;;;;;;;;;4982538;28;20421;-79
2021/12/13 00:18:56;;;;;;;25.47;15.17;;;;;;;;;;4981553;28;20442;-79
2021/12/13 00:21:28;;;;;;;27.63;15.60;;;;;;;;;;4983910;28;20487;-79
2021/12/13 00:24:04;;;;;;;24.83;15.37;;;;;;;;;;5002179;28;20484;-79
2021/12/13 00:26:35;;;;;;;25.93;16.00;;;;;;;;;;4983145;28;20677;-79
2021/12/13 00:29:13;;;;;;;23.83;14.87;;;;;;;;;;4988024;28;20456;-78
2021/12/13 00:31:46;;;;;;;26.07;15.17;;;;;;;;;;4985417;28;20426;-79
2021/12/13 00:34:31;;;;;;;27.70;14.33;;;;;;;;;;4971507;28;20460;-78
2021/12/13 00:37:10;;;;;;;23.80;13.10;;;;;;;;;;4964409;28;20436;-78
2021/12/13 00:39:51;;;;;;;23.17;14.20;;;;;;;;;;4981856;28;20497;-78
2021/12/13 00:42:19;;;;;;;18.27;8.93;;;;;;;;;;4963071;28;20463;-78
2021/12/13 00:44:48;;;;;;;21.53;12.70;;;;;;;;;;4985162;28;20415;-79
2021/12/13 00:47:18;;;;;;;21.87;12.47;;;;;;;;;;4998552;28;20468;-78
2021/12/13 00:49:47;;;;;;;18.27;9.07;;;;;;;;;;4984482;28;20439;-78
2021/12/13 00:52:18;;;;;;;17.23;9.60;;;;;;;;;;4983973;28;20463;-78
2021/12/13 00:54:45;;;;;;;14.27;8.63;;;;;;;;;;4982050;28;20791;-78
2021/12/13 00:57:22;;;;;;;14.93;9.70;;;;;;;;;;4983125;28;21343;-78
2021/12/13 00:59:54;;;;;;;15.43;10.00;;;;;;;;;;4986565;28;20465;-78
2021/12/13 01:02:38;;;;;;;15.33;10.33;;;;;;;;;;4982210;28;21047;-78
2021/12/13 01:05:13;;;;;;;16.03;9.93;;;;;;;;;;4981345;28;20439;-78
2021/12/13 01:07:58;;;;;;;14.00;8.67;;;;;;;;;;4978748;28;20440;-78
2021/12/13 01:10:25;;;;;;;13.33;8.43;;;;;;;;;;4967421;28;20428;-78
2021/12/13 01:12:52;;;;;;;14.03;8.57;;;;;;;;;;4982591;28;20430;-79
2021/12/13 01:15:29;;;;;;;14.90;8.70;;;;;;;;;;4974976;28;21294;-79
2021/12/13 01:18:17;;;;;;;15.53;9.13;;;;;;;;;;4981981;28;20554;-79
2021/12/13 01:21:01;;;;;;;14.60;9.47;;;;;;;;;;4980437;28;20527;-77
2021/12/13 01:23:44;;;;;;;10.63;6.70;;;;;;;;;;4964144;28;21231;-78
2021/12/13 01:28:43;;;;;;;11.93;7.97;;;;;;;;;;4979497;28;21137;-78
2021/12/13 01:31:15;;;;;;;11.57;7.07;;;;;;;;;;4983000;28;21254;-78
2021/12/13 01:33:44;;;;;;;11.10;5.90;;;;;;;;;;4972807;28;20952;-78
2021/12/13 01:36:12;;;;;;;10.37;6.73;;;;;;;;;;4966091;28;20431;-78
2021/12/13 01:38:45;;;;;;;8.83;5.87;;;;;;;;;;4967201;28;20444;-78
2021/12/13 01:41:23;;;;;;;12.90;6.07;;;;;;;;;;4977773;28;20460;-78
2021/12/13 01:43:56;;;;;;;8.00;5.77;;;;;;;;;;4980203;28;20412;-77
2021/12/13 01:46:23;;;;;;;10.77;5.53;;;;;;;;;;4964843;28;20492;-78
2021/12/13 01:48:52;;;;;;;9.10;5.20;;;;;;;;;;4981744;28;20450;-77
2021/12/13 01:51:21;;;;;;;8.63;4.60;;;;;;;;;;4976274;28;20508;-77
2021/12/13 01:53:50;;;;;;;10.53;5.10;;;;;;;;;;4996638;28;20470;-78
2021/12/13 01:56:42;;;;;;;8.70;5.30;;;;;;;;;;4977935;28;20524;-78
2021/12/13 01:59:41;;;;;;;11.13;5.73;;;;;;;;;;4980183;28;20432;-78
2021/12/13 02:02:13;;;;;;;11.20;6.20;;;;;;;;;;4976784;28;20455;-77
2021/12/13 02:04:40;;;;;;;8.90;5.57;;;;;;;;;;4978982;28;21291;-77
2021/12/13 02:07:07;;;;;;;9.27;5.90;;;;;;;;;;4970617;28;20428;-77
2021/12/13 02:09:35;;;;;;;10.63;5.67;;;;;;;;;;4977518;28;20420;-76
2021/12/13 02:12:04;;;;;;;13.67;6.10;;;;;;;;;;4976199;28;20504;-77
2021/12/13 02:14:34;;;;;;;11.07;6.30;;;;;;;;;;4984438;28;20427;-77
2021/12/13 02:17:10;;;;;;;11.37;5.90;;;;;;;;;;4973921;28;21288;-77
2021/12/13 02:19:37;;;;;;;9.40;6.13;;;;;;;;;;4969626;28;20471;-78
2021/12/13 02:22:24;;;;;;;8.97;6.37;;;;;;;;;;4976551;28;20534;-77
2021/12/13 02:24:51;;;;;;;10.70;6.60;;;;;;;;;;4966388;28;20436;-77
2021/12/13 02:27:26;;;;;;;12.07;6.70;;;;;;;;;;4975153;28;20412;-77
2021/12/13 02:29:55;;;;;;;9.13;5.23;;;;;;;;;;4976097;28;20495;-78
2021/12/13 02:32:27;;;;;;;10.03;4.50;;;;;;;;;;4977349;28;20499;-77
2021/12/13 02:34:56;;;;;;;8.53;4.00;;;;;;;;;;4967716;28;20420;-77
2021/12/13 02:37:24;;;;;;;8.07;4.30;;;;;;;;;;4976663;28;20443;-77
2021/12/13 02:39:56;;;;;;;7.67;3.97;;;;;;;;;;4978342;28;20427;-77
2021/12/13 02:42:24;;;;;;;11.23;4.13;;;;;;;;;;4972051;28;21173;-77
2021/12/13 02:44:53;;;;;;;5.77;4.10;;;;;;;;;;4993679;28;20865;-77
2021/12/13 02:47:28;;;;;;;9.00;4.70;;;;;;;;;;4979809;28;20416;-77
2021/12/13 02:49:55;;;;;;;8.27;4.37;;;;;;;;;;4977678;28;20441;-77
2021/12/13 02:52:22;;;;;;;7.17;3.90;;;;;;;;;;4959707;28;20429;-77
2021/12/13 02:54:54;;;;;;;6.50;4.00;;;;;;;;;;4974484;28;21488;-77
2021/12/13 02:57:23;;;;;;;10.00;3.93;;;;;;;;;;4978990;28;20535;-77
2021/12/13 02:59:51;;;;;;;9.40;3.83;;;;;;;;;;4957398;28;20408;-77
2021/12/13 03:02:24;;;;;;;6.97;3.57;;;;;;;;;;4972842;28;20457;-79
2021/12/13 03:04:51;;;;;;;6.40;3.70;;;;;;;;;;4981801;28;20522;-78
2021/12/13 03:07:17;;;;;;;5.57;3.63;;;;;;;;;;4970335;28;21178;-79
2021/12/13 03:09:47;;;;;;;7.13;3.20;;;;;;;;;;4978563;28;20509;-77
2021/12/13 03:12:15;;;;;;;9.33;3.50;;;;;;;;;;4961208;28;20420;-77
2021/12/13 03:14:45;;;;;;;8.30;3.20;;;;;;;;;;4984672;28;20529;-77
2021/12/13 03:17:17;;;;;;;4.50;2.77;;;;;;;;;;4977738;28;20431;-77
2021/12/13 03:19:43;;;;;;;7.83;3.90;;;;;;;;;;4980330;28;20551;-77
2021/12/13 03:22:19;;;;;;;5.10;3.20;;;;;;;;;;4979377;28;20527;-77
2021/12/13 03:25:03;;;;;;;5.10;3.47;;;;;;;;;;4983309;28;20424;-77
2021/12/13 03:27:34;;;;;;;5.70;3.20;;;;;;;;;;4979718;28;20428;-77
2021/12/13 03:30:12;;;;;;;5.10;2.60;;;;;;;;;;4984165;28;20556;-77
2021/12/13 03:32:43;;;;;;;5.53;3.40;;;;;;;;;;4977777;28;20429;-78
2021/12/13 03:35:14;;;;;;;4.93;3.33;;;;;;;;;;4980565;28;20433;-77
2021/12/13 03:37:41;;;;;;;5.13;2.83;;;;;;;;;;4978024;28;20437;-77
2021/12/13 03:40:19;;;;;;;4.80;2.30;;;;;;;;;;4972755;28;20950;-78
2021/12/13 03:42:48;;;;;;;5.80;2.70;;;;;;;;;;4981821;28;20453;-78
2021/12/13 03:45:37;;;;;;;4.77;2.83;;;;;;;;;;4982444;28;20423;-78
2021/12/13 03:48:05;;;;;;;6.90;2.27;;;;;;;;;;4964813;28;20431;-79
2021/12/13 03:50:34;;;;;;;5.43;2.90;;;;;;;;;;4965047;28;21360;-78
2021/12/13 03:53:03;;;;;;;5.57;2.50;;;;;;;;;;4966787;28;20435;-78
2021/12/13 03:55:33;;;;;;;4.73;2.50;;;;;;;;;;4985064;28;20453;-78
2021/12/13 03:58:01;;;;;;;4.07;2.47;;;;;;;;;;4980763;28;20429;-78
2021/12/13 04:00:29;;;;;;;4.20;2.63;;;;;;;;;;4985839;28;20412;-78
2021/12/13 04:02:57;;;;;;;4.60;2.40;;;;;;;;;;4977479;28;20905;-78
2021/12/13 04:05:25;;;;;;;5.13;2.80;;;;;;;;;;4965057;28;20429;-78
2021/12/13 04:07:53;;;;;;;4.00;3.00;;;;;;;;;;4984736;28;20974;-78
2021/12/13 04:10:25;;;;;;;5.20;2.30;;;;;;;;;;4982938;28;20507;-79
2021/12/13 04:12:53;;;;;;;3.67;2.27;;;;;;;;;;4955627;28;20440;-78
2021/12/13 04:15:27;;;;;;;5.80;2.00;;;;;;;;;;4965894;28;20426;-78
2021/12/13 04:18:01;;;;;;;4.97;1.90;;;;;;;;;;4959652;28;20450;-77
2021/12/13 04:20:30;;;;;;;2.90;2.10;;;;;;;;;;4960168;28;20506;-78
2021/12/13 04:23:01;;;;;;;2.97;1.83;;;;;;;;;;4964768;28;20459;-78
2021/12/13 04:25:31;;;;;;;4.30;2.40;;;;;;;;;;4986384;28;20419;-78
2021/12/13 04:28:09;;;;;;;3.17;2.10;;;;;;;;;;4980572;28;20439;-78
2021/12/13 04:30:37;;;;;;;3.40;2.10;;;;;;;;;;4966881;28;20412;-78
2021/12/13 04:33:23;;;;;;;2.53;1.73;;;;;;;;;;4978635;28;20437;-79
2021/12/13 04:35:50;;;;;;;3.33;2.03;;;;;;;;;;4996867;28;20434;-78
2021/12/13 04:38:21;;;;;;;4.70;2.00;;;;;;;;;;4966791;28;20431;-79
2021/12/13 04:40:48;;;;;;;2.97;2.00;;;;;;;;;;4978679;28;22645;-77
2021/12/13 04:43:17;;;;;;;4.23;1.93;;;;;;;;;;4980924;28;20460;-78
2021/12/13 04:45:45;;;;;;;2.83;2.03;;;;;;;;;;4982209;28;20420;-78
2021/12/13 04:48:13;;;;;;;5.37;1.90;;;;;;;;;;4978053;28;20635;-78
2021/12/13 04:50:51;;;;;;;3.27;2.07;;;;;;;;;;4980094;28;20510;-79
2021/12/13 04:53:24;;;;;;;9.90;2.07;;;;;;;;;;4978938;28;20416;-78
2021/12/13 04:55:54;;;;;;;3.20;1.70;;;;;;;;;;4993631;28;20511;-78
2021/12/13 04:58:22;;;;;;;3.53;1.80;;;;;;;;;;4978667;28;20411;-78
2021/12/13 05:00:50;;;;;;;4.27;1.77;;;;;;;;;;4959631;28;20429;-78
2021/12/13 05:03:20;;;;;;;2.17;1.70;;;;;;;;;;4963821;28;20453;-78
2021/12/13 05:05:47;;;;;;;2.97;1.87;;;;;;;;;;4964592;28;20424;-78
2021/12/13 05:08:16;;;;;;;5.60;1.80;;;;;;;;;;4980514;28;20439;-77
2021/12/13 05:10:46;;;;;;;4.03;2.20;;;;;;;;;;4982469;28;20412;-78
2021/12/13 05:13:15;;;;;;;2.87;2.00;;;;;;;;;;4978178;28;20751;-77
2021/12/13 05:15:43;;;;;;;3.00;1.80;;;;;;;;;;4970469;28;20432;-77
2021/12/13 05:18:22;;;;;;;7.80;2.13;;;;;;;;;;4983042;28;20461;-78
2021/12/13 05:20:50;;;;;;;5.83;2.30;;;;;;;;;;4974691;28;20436;-77
2021/12/13 05:23:21;;;;;;;4.43;2.30;;;;;;;;;;4965942;28;20464;-78
2021/12/13 05:25:55;;;;;;;7.63;2.00;;;;;;;;;;4979199;28;20533;-79
2021/12/13 05:28:24;;;;;;;5.40;2.17;;;;;;;;;;4982192;28;21111;-79
2021/12/13 05:30:57;;;;;;;10.43;2.83;;;;;;;;;;4964802;28;20428;-78
2021/12/13 05:33:27;;;;;;;4.60;2.90;;;;;;;;;;4982761;28;20782;-78
2021/12/13 05:35:54;;;;;;;8.00;3.13;;;;;;;;;;4980406;28;20530;-78
2021/12/13 05:38:32;;;;;;;9.43;2.90;;;;;;;;;;4969557;28;20436;-78
2021/12/13 05:41:00;;;;;;;7.80;3.17;;;;;;;;;;4984265;28;20417;-78
2021/12/13 05:43:29;;;;;;;12.63;3.23;;;;;;;;;;4980701;28;20480;-78
2021/12/13 05:46:00;;;;;;;10.23;3.43;;;;;;;;;;4988421;28;20439;-79
2021/12/13 05:48:36;;;;;;;10.03;3.53;;;;;;;;;;4976109;28;21474;-78
2021/12/13 05:51:05;;;;;;;7.37;3.00;;;;;;;;;;4982640;28;21262;-78
2021/12/13 05:53:35;;;;;;;6.30;3.50;;;;;;;;;;4977142;28;20456;-78
2021/12/13 05:56:06;;;;;;;10.60;3.67;;;;;;;;;;4965489;28;20430;-78
2021/12/13 05:58:34;;;;;;;10.20;4.00;;;;;;;;;;4962964;28;20435;-78
2021/12/13 06:01:02;;;;;;;12.60;4.37;;;;;;;;;;4970869;28;20428;-78
2021/12/13 06:03:33;;;;;;;10.33;3.83;;;;;;;;;;4980412;28;20448;-78
2021/12/13 06:06:07;;;;;;;9.17;3.63;;;;;;;;;;4979809;28;20425;-78
2021/12/13 06:08:35;;;;;;;12.30;4.60;;;;;;;;;;4976894;28;21144;-78
2021/12/13 06:11:09;;;;;;;9.83;3.77;;;;;;;;;;4979707;28;20547;-78
2021/12/13 06:13:48;;;;;;;12.67;3.90;;;;;;;;;;4979895;28;20451;-78
2021/12/13 06:16:34;;;;;;;13.10;4.40;;;;;;;;;;4980238;28;20499;-79
2021/12/13 06:19:19;;;;;;;12.20;4.30;;;;;;;;;;4969722;28;20443;-78
2021/12/13 06:21:54;;;;;;;7.73;3.63;;;;;;;;;;4994361;28;20452;-78
2021/12/13 06:24:29;;;;;;;11.47;4.07;;;;;;;;;;4959742;28;21216;-79
2021/12/13 06:27:22;;;;;;;12.03;4.50;;;;;;;;;;4977800;28;20431;-78
2021/12/13 06:29:59;;;;;;;13.93;4.23;;;;;;;;;;4964557;28;20435;-79
2021/12/13 06:32:29;;;;;;;11.17;3.73;;;;;;;;;;5000304;28;20440;-78
2021/12/13 06:34:56;;;;;;;12.53;3.90;;;;;;;;;;4978255;28;20433;-79
2021/12/13 06:37:33;;;;;;;12.20;3.47;;;;;;;;;;4971263;28;20428;-79
2021/12/13 06:40:11;;;;;;;7.63;3.43;;;;;;;;;;4966271;28;20433;-79
2021/12/13 06:42:38;;;;;;;8.40;3.67;;;;;;;;;;4981304;28;20451;-78
2021/12/13 06:45:17;;;;;;;6.63;3.50;;;;;;;;;;4982389;28;20557;-78
2021/12/13 06:47:51;;;;;;;8.43;3.77;;;;;;;;;;4965432;28;20420;-78
2021/12/13 06:50:32;;;;;;;9.77;3.37;;;;;;;;;;4963554;28;20780;-78
2021/12/13 06:53:14;;;;;;;17.20;4.20;;;;;;;;;;4965318;28;20932;-79
2021/12/13 06:55:41;;;;;;;18.80;4.50;;;;;;;;;;4981696;28;20484;-79
2021/12/13 06:58:16;;;;;;;19.83;5.10;;;;;;;;;;4985724;28;20763;-79
2021/12/13 07:00:43;;;;;;;8.07;3.90;;;;;;;;;;4984043;28;21266;-79
2021/12/13 07:03:11;;;;;;;8.40;4.27;;;;;;;;;;4968638;28;20879;-79
2021/12/13 07:05:45;;;;;;;19.60;6.50;;;;;;;;;;4974107;28;21441;-79
2021/12/13 07:08:16;;;;;;;17.30;5.53;;;;;;;;;;4968282;28;20561;-79
2021/12/13 07:10:52;;;;;;;18.33;5.53;;;;;;;;;;4983861;28;20934;-79
2021/12/13 07:13:21;;;;;;;16.30;4.97;;;;;;;;;;4982845;28;20551;-79
2021/12/13 07:15:50;;;;;;;16.57;5.17;;;;;;;;;;4967791;28;20459;-80
2021/12/13 07:18:18;;;;;;;21.27;6.43;;;;;;;;;;4971788;28;20438;-80
2021/12/13 07:20:51;;;;;;;14.13;5.33;;;;;;;;;;4990388;28;21194;-79
2021/12/13 07:23:17;;;;;;;18.80;6.23;;;;;;;;;;4969428;28;20456;-80
2021/12/13 07:25:44;;;;;;;16.97;6.30;;;;;;;;;;4971673;28;20989;-80
2021/12/13 07:28:14;;;;;;;34.43;8.43;;;;;;;;;;4983780;28;20435;-80
2021/12/13 07:30:44;;;;;;;31.43;8.40;;;;;;;;;;4988778;28;21358;-80
2021/12/13 07:33:20;;;;;;;29.27;8.13;;;;;;;;;;4989260;28;20440;-80
2021/12/13 07:35:53;;;;;;;27.23;7.77;;;;;;;;;;4974692;28;20435;-79
2021/12/13 07:38:20;;;;;;;26.67;8.50;;;;;;;;;;4970763;28;20877;-80
2021/12/13 07:40:48;;;;;;;24.17;8.13;;;;;;;;;;4983710;28;20428;-79
2021/12/13 07:43:28;;;;;;;19.77;8.37;;;;;;;;;;4984461;28;20450;-79
2021/12/13 07:46:03;;;;;;;21.03;7.30;;;;;;;;;;4990637;28;21368;-79
2021/12/13 07:48:37;;;;;;;26.33;9.77;;;;;;;;;;4986148;28;20423;-80
2021/12/13 07:51:10;;;;;;;30.43;10.90;;;;;;;;;;4985688;28;20424;-79
2021/12/13 07:53:48;;;;;;;19.07;8.13;;;;;;;;;;4988595;28;20430;-79
2021/12/13 07:56:50;;;;;;;24.43;8.07;;;;;;;;;;4992623;28;20428;-79
2021/12/13 07:59:25;;;;;;;22.67;7.63;;;;;;;;;;4991923;28;20432;-79
2021/12/13 08:01:52;;;;;;;11.50;7.17;;;;;;;;;;4974965;28;20450;-79
2021/12/13 08:04:26;;;;;;;20.67;7.03;;;;;;;;;;4989296;28;20767;-80
2021/12/13 08:06:56;;;;;;;17.27;7.23;;;;;;;;;;4992528;28;20440;-80
2021/12/13 08:09:28;;;;;;;18.00;6.90;;;;;;;;;;4990998;28;20519;-80
2021/12/13 08:11:57;;;;;;;17.13;8.07;;;;;;;;;;4974512;28;20467;-80
2021/12/13 08:14:42;;;;;;;20.90;7.80;;;;;;;;;;4971128;28;20451;-79
2021/12/13 08:17:19;;;;;;;22.77;9.03;;;;;;;;;;4988718;28;20772;-79
2021/12/13 08:20:00;;;;;;;21.50;9.93;;;;;;;;;;4995257;28;20423;-79
2021/12/13 08:22:36;;;;;;;23.83;10.57;;;;;;;;;;4974548;28;20505;-78
2021/12/13 08:25:09;;;;;;;26.43;11.57;;;;;;;;;;4980250;28;20514;-79
2021/12/13 08:27:41;;;;;;;25.30;11.33;;;;;;;;;;4990981;28;20509;-81
2021/12/13 08:30:11;;;;;;;29.73;12.20;;;;;;;;;;4985439;28;20432;-81
2021/12/13 08:32:37;;;;;;;33.63;12.03;;;;;;;;;;4990122;28;20553;-81
2021/12/13 08:35:06;;;;;;;27.80;12.10;;;;;;;;;;4980308;28;20528;-81
2021/12/13 08:37:34;;;;;;;30.53;13.07;;;;;;;;;;4991028;28;20429;-81
2021/12/13 08:40:11;;;;;;;28.23;11.93;;;;;;;;;;4973601;28;20451;-81
2021/12/13 08:42:41;;;;;;;22.03;11.13;;;;;;;;;;4977012;28;21215;-81
2021/12/13 08:45:20;;;;;;;25.90;10.60;;;;;;;;;;4992714;28;20420;-80
2021/12/13 08:47:49;;;;;;;23.03;11.00;;;;;;;;;;4990247;28;20933;-81
2021/12/13 08:50:18;;;;;;;21.20;9.40;;;;;;;;;;4990296;28;20425;-80
2021/12/13 08:52:49;;;;;;;15.03;7.93;;;;;;;;;;4982933;28;20531;-81
2021/12/13 08:55:18;;;;;;;15.90;8.10;;;;;;;;;;5007639;28;20457;-81
2021/12/13 08:57:50;;;;;;;13.37;6.57;;;;;;;;;;4986558;28;20467;-81
2021/12/13 09:00:32;;;;;;;13.03;6.67;;;;;;;;;;4977864;28;20420;-81
2021/12/13 09:03:13;;;;;;;11.67;5.90;;;;;;;;;;4993084;28;20554;-81
2021/12/13 09:05:57;;;;;;;12.00;6.43;;;;;;;;;;4993185;28;20446;-80
2021/12/13 09:09:00;;;;;;;14.53;6.20;;;;;;;;;;4989799;28;20432;-81
2021/12/13 09:11:30;;;;;;;11.37;5.60;;;;;;;;;;4989165;28;20420;-81
2021/12/13 09:14:00;;;;;;;15.67;5.77;;;;;;;;;;4991350;28;21473;-81
2021/12/13 09:16:43;;;;;;;11.33;5.60;;;;;;;;;;4975163;28;21306;-80
2021/12/13 09:22:14;;;;;;;11.27;5.70;;;;;;;;;;4989834;28;20645;-80
2021/12/13 09:24:49;;;;;;;13.40;6.43;;;;;;;;;;4990413;28;21191;-81
2021/12/13 09:27:35;;;;;;;16.97;6.30;;;;;;;;;;4986286;28;20424;-81
2021/12/13 09:30:12;;;;;;;16.03;6.37;;;;;;;;;;4990236;28;20436;-81
2021/12/13 09:32:44;;;;;;;13.53;7.30;;;;;;;;;;4987841;28;20463;-81
2021/12/13 09:35:26;;;;;;;15.37;8.37;;;;;;;;;;4986346;28;20436;-81
2021/12/13 09:38:00;;;;;;;14.67;7.80;;;;;;;;;;4989825;28;20463;-83
2021/12/13 09:40:34;;;;;;;14.40;8.20;;;;;;;;;;4967756;28;20428;-81
2021/12/13 09:43:06;;;;;;;17.70;8.67;;;;;;;;;;4974017;28;20448;-81
2021/12/13 09:45:56;;;;;;;21.53;10.80;;;;;;;;;;4966463;28;20540;-81
2021/12/13 09:48:33;;;;;;;16.20;7.80;;;;;;;;;;4968910;28;20435;-81
2021/12/13 09:51:20;;;;;;;18.07;8.40;;;;;;;;;;4985341;28;20429;-82
2021/12/13 09:53:54;;;;;;;17.67;8.73;;;;;;;;;;4968358;28;20448;-81
2021/12/13 09:56:29;;;;;;;20.07;9.37;;;;;;;;;;4973002;28;20413;-81
2021/12/13 09:59:07;;;;;;;24.63;10.93;;;;;;;;;;4969854;28;20553;-82
2021/12/13 10:01:39;;;;;;;21.00;10.80;;;;;;;;;;4984756;28;20525;-81
2021/12/13 10:04:14;;;;;;;15.47;7.50;;;;;;;;;;4986062;28;20424;-81
2021/12/13 10:06:44;;;;;;;19.43;9.30;;;;;;;;;;4984838;28;20439;-82
2021/12/13 10:09:19;;;;;;;13.33;8.00;;;;;;;;;;4984570;28;20424;-81
2021/12/13 10:12:06;;;;;;;12.43;6.20;;;;;;;;;;4986152;28;20418;-81
2021/12/13 10:14:37;;;;;;;12.47;5.63;;;;;;;;;;4987862;28;20856;-82
2021/12/13 10:17:05;;;;;;;9.67;5.23;;;;;;;;;;4981600;28;20421;-83
2021/12/13 10:19:34;;;;;;;11.03;5.60;;;;;;;;;;4981515;28;20573;-84
2021/12/13 10:22:05;;;;;;;11.17;5.40;;;;;;;;;;4984748;28;20463;-84
2021/12/13 10:24:34;;;;;;;12.17;5.30;;;;;;;;;;4982991;28;20424;-84
2021/12/13 10:27:02;;;;;;;15.60;5.43;;;;;;;;;;4975809;28;20507;-83
2021/12/13 10:29:29;;;;;;;14.70;5.40;;;;;;;;;;4987887;28;20440;-85
2021/12/13 10:32:00;;;;;;;6.57;4.33;;;;;;;;;;4984989;28;20446;-85
2021/12/13 10:34:35;;;;;;;8.73;4.23;;;;;;;;;;4980709;28;20520;-85
2021/12/13 10:37:06;;;;;;;10.73;4.60;;;;;;;;;;4981405;28;20420;-85
2021/12/13 10:39:43;;;;;;;9.33;3.50;;;;;;;;;;4984611;28;21239;-85
2021/12/13 10:42:32;;;;;;;4.50;3.03;;;;;;;;;;4981370;28;20478;-85
2021/12/13 10:45:00;;;;;;;6.97;3.57;;;;;;;;;;4970008;28;20425;-84
2021/12/13 10:47:29;;;;;;;8.60;4.00;;;;;;;;;;4982368;28;20421;-84
2021/12/13 10:49:58;;;;;;;7.70;3.87;;;;;;;;;;4985117;28;20490;-84
2021/12/13 10:52:33;;;;;;;7.67;4.13;;;;;;;;;;4982750;28;20432;-85
2021/12/13 10:55:01;;;;;;;7.27;4.00;;;;;;;;;;4968405;28;20416;-84
2021/12/13 10:57:33;;;;;;;7.97;4.40;;;;;;;;;;4985108;28;20455;-85
2021/12/13 11:00:07;;;;;;;9.57;4.47;;;;;;;;;;4970804;28;20900;-85
2021/12/13 11:02:38;;;;;;;13.23;4.53;;;;;;;;;;4969354;28;20563;-85
2021/12/13 11:05:13;;;;;;;11.07;4.80;;;;;;;;;;4987626;28;20438;-84
2021/12/13 11:07:41;;;;;;;11.23;4.20;;;;;;;;;;4971474;28;20420;-86
2021/12/13 11:10:11;;;;;;;9.23;4.60;;;;;;;;;;4984178;28;20432;-84
2021/12/13 11:12:43;;;;;;;11.37;4.60;;;;;;;;;;4986790;28;20429;-86
2021/12/13 11:15:17;;;;;;;8.67;4.37;;;;;;;;;;4985456;28;20756;-85
2021/12/13 11:17:44;;;;;;;7.83;4.47;;;;;;;;;;4979819;28;20455;-86
2021/12/13 11:20:22;;;;;;;10.57;4.23;;;;;;;;;;4987089;28;20428;-86
2021/12/13 11:22:50;;;;;;;10.87;4.87;;;;;;;;;;4983663;28;20437;-85
2021/12/13 11:25:22;;;;;;;6.33;3.70;;;;;;;;;;4971661;28;20974;-87
2021/12/13 11:27:49;;;;;;;5.90;3.77;;;;;;;;;;4985013;28;20419;-86
2021/12/13 11:30:25;;;;;;;9.23;4.10;;;;;;;;;;4987433;28;20940;-85
2021/12/13 11:33:02;;;;;;;8.50;4.07;;;;;;;;;;4972309;28;21426;-88
2021/12/13 11:35:49;;;;;;;9.80;3.63;;;;;;;;;;4974482;28;20522;-86
2021/12/13 11:38:28;;;;;;;10.07;3.73;;;;;;;;;;4970284;28;20428;-87
2021/12/13 11:41:13;;;;;;;8.37;3.53;;;;;;;;;;4966871;28;20676;-87
2021/12/13 11:43:47;;;;;;;9.07;3.40;;;;;;;;;;4984960;28;21201;-86
2021/12/13 11:46:26;;;;;;;7.17;3.50;;;;;;;;;;4984078;28;20996;-87
2021/12/13 11:49:14;;;;;;;10.10;3.80;;;;;;;;;;4990901;28;20769;-87
2021/12/13 11:52:02;;;;;;;7.47;4.07;;;;;;;;;;4963655;28;20478;-84
2021/12/13 11:54:34;;;;;;;7.00;4.03;;;;;;;;;;4969267;28;20848;-84
2021/12/13 11:57:19;;;;;;;8.40;4.23;;;;;;;;;;4987867;28;21282;-85
2021/12/13 12:00:07;;;;;;;6.00;4.03;;;;;;;;;;4988238;28;20547;-85
2021/12/13 12:02:52;;;;;;;9.17;4.70;;;;;;;;;;4984667;28;20944;-86
2021/12/13 12:05:39;;;;;;;10.40;6.60;;;;;;;;;;5002499;28;20614;-85
2021/12/13 12:08:25;;;;;;;10.43;6.73;;;;;;;;;;4978658;28;20447;-87
2021/12/13 12:11:10;;;;;;;9.60;7.07;;;;;;;;;;4986713;28;20188;-87
2021/12/13 12:13:40;;;;;;;11.07;7.07;;;;;;;;;;4982575;28;20173;-88
2021/12/13 12:16:07;;;;;;;9.90;7.03;;;;;;;;;;4981373;28;21070;-89
2021/12/13 12:18:46;;;;;;;13.43;7.60;;;;;;;;;;5002306;28;20184;-90
2021/12/13 12:21:34;;;;;;;11.20;7.27;;;;;;;;;;4985464;28;20276;-89
2021/12/13 12:24:02;;;;;;;10.43;7.20;;;;;;;;;;4986268;28;20210;-87
2021/12/13 12:26:29;;;;;;;12.70;6.87;;;;;;;;;;4985585;28;20171;-87
2021/12/13 12:29:07;;;;;;;9.47;6.73;;;;;;;;;;4968901;28;20281;-87
2021/12/13 12:31:47;;;;;;;9.87;6.50;;;;;;;;;;4986129;28;20165;-87
2021/12/13 12:34:21;;;;;;;12.30;7.40;;;;;;;;;;4968600;28;21220;-89
2021/12/13 12:37:08;;;;;;;10.07;7.27;;;;;;;;;;4981383;28;20173;-87
2021/12/13 12:39:44;;;;;;;11.33;7.80;;;;;;;;;;4946255;28;20918;-88
2021/12/13 12:42:24;;;;;;;13.50;7.87;;;;;;;;;;4977678;28;20201;-85
2021/12/13 12:45:12;;;;;;;14.43;7.67;;;;;;;;;;4992557;28;20200;-86
2021/12/13 12:47:42;;;;;;;12.27;7.73;;;;;;;;;;4988115;28;20705;-88
2021/12/13 12:50:50;;;;;;;11.37;7.73;;;;;;;;;;4988297;28;20197;-86
2021/12/13 12:53:29;;;;;;;12.17;7.40;;;;;;;;;;4945314;28;20203;-87
2021/12/13 12:55:58;;;;;;;11.60;7.70;;;;;;;;;;4986813;28;20206;-87
2021/12/13 12:58:30;;;;;;;14.20;7.97;;;;;;;;;;4985972;28;20273;-86
2021/12/13 13:01:00;;;;;;;12.30;7.50;;;;;;;;;;4972848;28;20212;-86
2021/12/13 13:06:56;;;;;;;11.50;8.13;;;;;;;;;;4969111;28;20658;-85
2021/12/13 13:09:33;;;;;;;14.33;8.50;;;;;;;;;;4969291;28;21029;-86
2021/12/13 13:12:05;;;;;;;14.90;8.37;;;;;;;;;;4989424;28;20276;-84
2021/12/13 13:14:35;;;;;;;12.00;8.90;;;;;;;;;;4993140;28;20323;-87
2021/12/13 13:17:08;;;;;;;13.90;9.10;;;;;;;;;;4971924;28;20568;-84
2021/12/13 13:19:42;;;;;;;14.90;9.50;;;;;;;;;;4989562;28;20255;-86
2021/12/13 13:22:29;;;;;;;13.77;8.70;;;;;;;;;;4991498;28;20201;-87
2021/12/13 13:25:00;;;;;;;15.10;9.13;;;;;;;;;;4988129;28;20236;-86
2021/12/13 13:27:33;;;;;;;12.37;9.37;;;;;;;;;;4988555;28;20179;-87
2021/12/13 13:30:08;;;;;;;19.70;9.63;;;;;;;;;;4987537;28;20221;-86
2021/12/13 13:32:37;;;;;;;15.70;9.93;;;;;;;;;;4986615;28;20292;-86
2021/12/13 13:35:04;;;;;;;15.30;10.00;;;;;;;;;;4991668;28;20182;-86
2021/12/13 13:37:40;;;;;;;16.37;10.23;;;;;;;;;;4989917;28;20272;-86
2021/12/13 13:40:21;;;;;;;14.17;9.90;;;;;;;;;;4976366;28;20531;-86
2021/12/13 13:42:57;;;;;;;13.57;10.17;;;;;;;;;;4968592;28;20236;-87
2021/12/13 13:45:30;;;;;;;16.43;10.93;;;;;;;;;;4987484;28;20174;-87
2021/12/13 13:47:59;;;;;;;18.40;11.07;;;;;;;;;;4985650;28;21056;-87
2021/12/13 13:50:26;;;;;;;18.43;11.43;;;;;;;;;;4985157;28;20280;-87
2021/12/13 13:52:54;;;;;;;19.40;10.93;;;;;;;;;;4985708;28;20188;-88
2021/12/13 13:55:28;;;;;;;16.17;11.30;;;;;;;;;;4984876;28;20251;-87
2021/12/13 13:58:01;;;;;;;16.80;11.00;;;;;;;;;;4984624;28;20176;-87
2021/12/13 14:00:37;;;;;;;15.40;10.67;;;;;;;;;;4987769;28;20212;-88
2021/12/13 14:03:07;;;;;;;15.57;9.30;;;;;;;;;;4979408;28;20209;-88
2021/12/13 14:05:35;;;;;;;12.77;8.63;;;;;;;;;;4965199;28;20187;-89
2021/12/13 14:08:01;;;;;;;13.17;9.33;;;;;;;;;;4982699;28;20176;-88
2021/12/13 14:10:29;;;;;;;16.20;9.80;;;;;;;;;;4984364;28;20181;-88
2021/12/13 14:13:04;;;;;;;14.40;10.57;;;;;;;;;;4965936;28;20567;-90
2021/12/13 14:15:39;;;;;;;16.63;10.67;;;;;;;;;;4986343;28;20180;-89
2021/12/13 14:18:17;;;;;;;15.30;10.73;;;;;;;;;;4971025;28;20200;-87
2021/12/13 14:20:57;;;;;;;16.03;10.90;;;;;;;;;;5002806;28;20184;-87
2021/12/13 14:23:41;;;;;;;17.90;11.30;;;;;;;;;;4969395;28;20205;-88
2021/12/13 14:26:12;;;;;;;19.30;12.13;;;;;;;;;;4971534;28;20173;-87
2021/12/13 14:28:44;;;;;;;20.20;11.57;;;;;;;;;;4984841;28;20174;-87
2021/12/13 14:31:22;;;;;;;21.00;11.47;;;;;;;;;;4985221;28;20228;-87
2021/12/13 14:33:51;;;;;;;18.20;11.47;;;;;;;;;;4997671;28;20213;-88
2021/12/13 14:36:23;;;;;;;20.20;11.70;;;;;;;;;;4969073;28;20178;-88
2021/12/13 14:38:55;;;;;;;21.53;12.17;;;;;;;;;;4989122;28;20170;-87
2021/12/13 14:41:31;;;;;;;17.50;11.20;;;;;;;;;;4984633;28;20748;-87
2021/12/13 14:44:10;;;;;;;17.87;12.03;;;;;;;;;;4984323;28;20197;-87
2021/12/13 14:50:00;;;;;;;24.17;15.17;;;;;;;;;;4985079;28;20192;-87
2021/12/13 14:52:34;;;;;;;26.30;13.30;;;;;;;;;;4983444;28;21095;-86
2021/12/13 14:55:05;;;;;;;26.40;13.67;;;;;;;;;;4983058;28;20185;-86
2021/12/13 14:57:35;;;;;;;23.00;12.97;;;;;;;;;;4983625;28;20316;-87
2021/12/13 15:00:14;;;;;;;20.47;12.60;;;;;;;;;;4966871;28;20601;-87
2021/12/13 15:02:42;;;;;;;23.23;14.80;;;;;;;;;;4970531;28;20292;-86
2021/12/13 15:05:13;;;;;;;21.47;12.83;;;;;;;;;;4976351;28;20630;-87
2021/12/13 15:07:49;;;;;;;21.87;14.33;;;;;;;;;;4991537;28;20991;-87
2021/12/13 15:10:24;;;;;;;24.17;13.80;;;;;;;;;;4975291;28;20177;-87
2021/12/13 15:12:51;;;;;;;25.20;14.70;;;;;;;;;;4991558;28;20259;-87
2021/12/13 15:15:32;;;;;;;21.50;14.47;;;;;;;;;;4992230;28;20998;-87
2021/12/13 15:18:11;;;;;;;23.40;14.13;;;;;;;;;;4973696;28;20199;-87
2021/12/13 15:20:49;;;;;;;24.90;14.30;;;;;;;;;;4990169;28;20166;-87